Welcome to our Virtual Airline
Sign-in:

Flight MFC48841

  • Submitted By: Thomas Menzel
  • Departure Airport: Horsfeld (4Z5)
  • Arrival Airport: Glacier Creek Airport (KGZ)
  • Aircraft: BARON B58 (N008MM)
  • Flight Time: 01.15.02
  • Date Submitted: 19/07/29
  • Route: STOP AT ROCK LAKE CABIN (RKLK) AND SKOLIA LAKE CABIN (SKOL
  • Status: Accepted
Flight Details
Gross Revenue:
(3 load / $ 94.00 per unit
$ 282.00
Fuel Cost:
(70.3068 fuel used @ 5.1 / unit)
$ 358.56

Additional Log Information:

View Log

FS[13:14] ----- Flight Opened -----
FS[13:14] Cigar Box - 1.1.4.0
FS[13:14] FS: Prepar3D V4
FS[13:14] FSUIPC: v5.14
FS[13:14] Flight Number: MFC48841
FS[13:14] FS Aircraft: Soloy MK2 RTMM Float
FS[13:14] FS Model: C206
FS[13:14] FS Type: Cessna
FS[13:14] Departure: 4Z5
FS[13:14] Arrival: KGZ
FS[13:14] Flight Level: 8500
FS[13:14] Flight Type: H
FS[13:14] Passengers: 3
FS[13:14] FOB: 516 lbs
FS[13:14] Gate: n/a
FS[13:14] NOTE: Parking Brake Ignored
FS[13:14] Crash Detection: Disabled
FS[13:14] Engines: 1 Turboprop
FS[13:14] NOTE: Boarding has started
FS[13:14] Parking Brake: Engaged
FS[13:14] Light Data: Navigation ON
FS[13:14] Light Data: Beacon ON
FS[13:14] Light Data: Strobe lights ON
FS[13:14] Light Data: Logo lights ON
FS[13:14] Main Door Closed
FS[13:14] COM1: 122.10
FS[13:14] COM2: 127.80
FS[13:14] Transponder: 7000
FS[13:14] NAV1: 113.70
FS[13:14] NAV2: 112.00
FS[13:14] ADF1: 218.0
FS[13:14] ADF2: 240.0
FS[13:14] Navigation Mode: GPS
FS[13:14] Navigation Mode: GPS
FS[13:15] Engine 1: Started
FS[13:15] Light Data: Landing lights ON
FS[13:15] Parking Brake: Released
FS[13:16] NOTE: Taxi started
FS[13:17] Flaps: Position 1
FS[13:17] NOTE: ----- TAKE OFF -----
FS[13:17] GS: 71 knots
FS[13:17] TAS: 75 knots
FS[13:17] IAS: 71 knots
FS[13:17] VS: 33 fpm
FS[13:17] FOB: 511 lbs
FS[13:17] Heading: 217°
FS[13:17] Pitch: 9°
FS[13:17] Bank: 0°
FS[13:17] Aircraft Weight: 3790.69 lbs
FS[13:17] Nearest Airport: 4Z5
FS[13:17] Distance: 0.12 miles
FS[13:17] Runway: ???
FS[13:17] Ground Surface: Forest
FS[13:17] Ground Condition: Normal
FS[13:17] NOTE: Weather Report
FS[13:17] Wind Heading: 201°
FS[13:17] Wind Speed: 4 knots
FS[13:17] OAT: 1° C
FS[13:17] TAT: 1° C
FS[13:17] Precipitation: None
FS[13:17] Dew Point: -9° C
FS[13:17] Visibility: 14 miles
FS[13:17] METAR: No METAR available for 4Z5.
FS[13:17] NOTE: Climb started
FS[13:17] Flaps: Position 0
FS[13:17] GS: 75 knots
FS[13:17] TAS: 80 knots
FS[13:17] IAS: 76 knots
FS[13:17] VS: 800 fpm
FS[13:18] Autopilot: Engaged
FS[13:18] AGL: 170 ft
FS[13:18] AMSL: 3772 ft
FS[13:18] View Mode: Virtual Cockpit
FS[13:18] Landing Gear: Retracted
FS[13:18] GS: 95 knots
FS[13:18] TAS: 101 knots
FS[13:18] IAS: 96 knots
FS[13:18] VS: 696 fpm
FS[13:18] AGL: 289 ft
FS[13:18] AMSL: 4009 ft
FS[13:18] Light Data: Landing lights OFF
FS[13:18] AGL: 331 ft
FS[13:18] AMSL: 4087 ft
FS[13:27] Recovery: Flight Saved
FS[13:32] Light Data: Landing lights ON
FS[13:32] AGL: 1043 ft
FS[13:32] AMSL: 4842 ft
FS[13:32] Flaps: Position 1
FS[13:32] GS: 95 knots
FS[13:32] TAS: 97 knots
FS[13:32] IAS: 92 knots
FS[13:32] VS: -919 fpm
FS[13:35] Flaps: Position 2
FS[13:35] GS: 89 knots
FS[13:35] TAS: 92 knots
FS[13:35] IAS: 89 knots
FS[13:35] VS: -282 fpm
FS[13:35] Autopilot: Disengaged
FS[13:35] AGL: 62 ft
FS[13:35] AMSL: 3641 ft
FS[13:35] NOTE: ----- LANDED -----
FS[13:35] Landing Rate: -466.75 fpm
FS[13:35] GS: 68 knots
FS[13:35] TAS: 71 knots
FS[13:35] IAS: 68 knots
FS[13:35] VS: -457 fpm
FS[13:35] FOB: 461 lbs
FS[13:35] Heading: 238°
FS[13:35] Pitch: 3°
FS[13:35] Bank: 0°
FS[13:35] Aircraft Weight: 3741.03 lbs
FS[13:35] Nearest Airport: RKLK
FS[13:35] Distance: 0.33 miles
FS[13:35] Runway: ???
FS[13:35] Ground Surface: Water
FS[13:35] Ground Condition: Normal
FS[13:35] NOTE: Weather Report
FS[13:35] Wind Heading: 191°
FS[13:35] Wind Speed: 3 knots
FS[13:35] OAT: -5° C
FS[13:35] TAT: -4° C
FS[13:35] Precipitation: None
FS[13:35] Dew Point: -8° C
FS[13:35] Visibility: 8 miles
FS[13:35] METAR: KGZH 291053Z AUTO 00000KT 9SM CLR 20/17 A3009 RMK AO2 SLP186 T02000172 TSNOKGZL 291055Z AUTO 21004KT 10SM FEW090 26/20 A2998 RMK AO2KGZN 291040Z AUTO 17010KT 10SM CLR 25/20 A3001 RMK AO2KGZS 291055Z AUTO 00000KT M1/4SM FG OVC002 19/19 A3009 RMK A01
FS[13:35] View Mode: Virtual Cockpit
FS[13:35] Reverse Thrust Started: 52 knots
FS[13:35] NOTE: Taxi started
FS[13:35] Flaps: Position 0
FS[13:35] Reverse Thrust Stopped: 13 knots
FS[13:36] Reverse Thrust Started: 7 knots
FS[13:36] Reverse Thrust Stopped: 0 knots
FS[13:37] Flaps: Position 1
FS[13:38] Autopilot: Engaged
FS[13:38] AGL: 187 ft
FS[13:38] AMSL: 3766 ft
FS[13:38] View Mode: Virtual Cockpit
FS[13:39] Light Data: Landing lights OFF
FS[13:39] AGL: 331 ft
FS[13:39] AMSL: 4156 ft
FS[13:39] Flaps: Position 0
FS[13:39] GS: 106 knots
FS[13:39] TAS: 110 knots
FS[13:39] IAS: 105 knots
FS[13:39] VS: 467 fpm
FS[13:44] Recovery: Flight Saved
FS[13:49] Flaps: Position 1
FS[13:49] GS: 116 knots
FS[13:49] TAS: 121 knots
FS[13:49] IAS: 113 knots
FS[13:49] VS: 33 fpm
FS[13:49] Autopilot: Disengaged
FS[13:49] AGL: 673 ft
FS[13:49] AMSL: 5121 ft
FS[13:50] Light Data: Landing lights ON
FS[13:50] AGL: 433 ft
FS[13:50] AMSL: 4862 ft
FS[13:51] Flaps: Position 2
FS[13:51] GS: 83 knots
FS[13:51] TAS: 82 knots
FS[13:51] IAS: 78 knots
FS[13:51] VS: -116 fpm
FS[13:52] NOTE: ----- LANDED -----
FS[13:52] Landing Rate: -180.70 fpm
FS[13:52] GS: 66 knots
FS[13:52] TAS: 66 knots
FS[13:52] IAS: 63 knots
FS[13:52] VS: -183 fpm
FS[13:52] FOB: 414 lbs
FS[13:52] Heading: 110°
FS[13:52] Pitch: 3°
FS[13:52] Bank: 1°
FS[13:52] Aircraft Weight: 3693.70 lbs
FS[13:52] Nearest Airport: SKOL
FS[13:52] Distance: 0.40 miles
FS[13:52] Runway: ???
FS[13:52] Ground Surface: Water
FS[13:52] Ground Condition: Normal
FS[13:52] NOTE: Weather Report
FS[13:52] Wind Heading: 190°
FS[13:52] Wind Speed: 5 knots
FS[13:52] OAT: -7° C
FS[13:52] TAT: -7° C
FS[13:52] Precipitation: None
FS[13:52] Dew Point: -8° C
FS[13:52] Visibility: 8 miles
FS[13:52] METAR: KGZH 291053Z AUTO 00000KT 9SM CLR 20/17 A3009 RMK AO2 SLP186 T02000172 TSNOKGZL 291055Z AUTO 21004KT 10SM FEW090 26/20 A2998 RMK AO2KGZN 291040Z AUTO 17010KT 10SM CLR 25/20 A3001 RMK AO2KGZS 291055Z AUTO 00000KT M1/4SM FG OVC002 19/19 A3009 RMK A01
FS[13:52] View Mode: Virtual Cockpit
FS[13:53] Flaps: Position 0
FS[13:53] Reverse Thrust Started: 5 knots
FS[13:54] Reverse Thrust Stopped: 0 knots
FS[14:08] FS: Paused
FS[14:08] FS: Unpaused
FS[14:08] FS: Paused
FS[14:10] FS: Unpaused
FS[14:10] FS: Paused
FS[14:10] Landing Gear: Extended
FS[14:10] Landing Gear: Retracted
FS[14:10] FS: Unpaused
FS[14:12] Flaps: Position 1
FS[14:12] Flaps: Position 2
FS[14:13] Flaps: Position 0
FS[14:13] GS: 81 knots
FS[14:13] TAS: 82 knots
FS[14:13] IAS: 78 knots
FS[14:13] VS: 514 fpm
FS[14:13] Autopilot: Engaged
FS[14:13] AGL: 203 ft
FS[14:13] AMSL: 4632 ft
FS[14:13] View Mode: Virtual Cockpit
FS[14:19] Recovery: Flight Saved
FS[14:27] Autopilot: Disengaged
FS[14:27] AGL: 3550 ft
FS[14:27] AMSL: 6122 ft
FS[14:27] Flaps: Position 1
FS[14:27] GS: 97 knots
FS[14:27] TAS: 101 knots
FS[14:27] IAS: 93 knots
FS[14:27] VS: 938 fpm
FS[14:27] Flaps: Position 2
FS[14:27] GS: 91 knots
FS[14:27] TAS: 96 knots
FS[14:27] IAS: 89 knots
FS[14:27] VS: 931 fpm
FS[14:27] Recovery: Flight Saved
FS[14:28] Light Data: Landing lights OFF
FS[14:28] AGL: 2248 ft
FS[14:28] AMSL: 4708 ft
FS[14:28] Landing Gear: Extended
FS[14:28] GS: 91 knots
FS[14:28] TAS: 95 knots
FS[14:28] IAS: 91 knots
FS[14:28] VS: -1444 fpm
FS[14:28] AGL: 2028 ft
FS[14:28] AMSL: 4511 ft
FS[14:29] Flaps: Position 3
FS[14:29] GS: 83 knots
FS[14:29] TAS: 89 knots
FS[14:29] IAS: 88 knots
FS[14:29] VS: -1665 fpm
FS[14:30] NOTE: ----- LANDED -----
FS[14:30] Landing Rate: -278.36 fpm
FS[14:30] GS: 66 knots
FS[14:30] TAS: 69 knots
FS[14:30] IAS: 68 knots
FS[14:30] VS: -242 fpm
FS[14:30] FOB: 363 lbs
FS[14:30] Heading: 115°
FS[14:30] Pitch: 3°
FS[14:30] Bank: 5°
FS[14:30] Aircraft Weight: 3642.26 lbs
FS[14:30] Nearest Airport: KGZ
FS[14:30] Distance: 0.10 miles
FS[14:30] Runway: ???
FS[14:30] Ground Surface: Urban
FS[14:30] Ground Condition: Normal
FS[14:30] NOTE: Weather Report
FS[14:30] Wind Heading: 164°
FS[14:30] Wind Speed: 4 knots
FS[14:30] OAT: -7° C
FS[14:30] TAT: -6° C
FS[14:30] Precipitation: None
FS[14:30] Dew Point: -14° C
FS[14:30] Visibility: 18 miles
FS[14:30] METAR: KGZH 291053Z AUTO 00000KT 9SM CLR 20/17 A3009 RMK AO2 SLP186 T02000172 TSNOKGZL 291055Z AUTO 21004KT 10SM FEW090 26/20 A2998 RMK AO2KGZN 291040Z AUTO 17010KT 10SM CLR 25/20 A3001 RMK AO2KGZS 291055Z AUTO 00000KT M1/4SM FG OVC002 19/19 A3009 RMK A01
FS[14:30] View Mode: Virtual Cockpit
FS[14:30] Reverse Thrust Started: 48 knots
FS[14:30] Reverse Thrust Stopped: 1 knots
FS[14:30] Flaps: Position 0
FS[14:31] NOTE: Arrived
FS[14:31] Parking Brake: Engaged
FS[14:31] Parking Brake: Released
FS[14:31] Parking Brake: Engaged
FS[14:31] Gate: n/a
FS[14:31] NOTE: Flight Completed
FS[14:31] FS Aircraft: Soloy MK2 RTMM Float
FS[14:31] FS Model: C206
FS[14:31] FS Type: Cessna
FS[14:31] FOB: 361 lbs
FS[14:31] Fuel Used: 155 lbs
FS[14:31] Flight Time: 01:15:02
FS[14:31] Flight Time (Dawn): 00:00:00
FS[14:31] Flight Time (Day): 01:15:02
FS[14:31] Flight Time (Dusk): 00:00:00
FS[14:31] Flight Time (Night): 00:00:00
FS[14:31] Total Landings: 3
FS[14:31] MaxSim Rate: 0x
FS[14:31] Cigar Box - 1.1.4.0
FS[14:31] ----- Flight Closed -----

Route Map